Time;durP1;ratioP1;P1;durP2;ratioP2;P2;SDS_P1;SDS_P2;PMS_P1;PMS_P2;Temp;Humidity;BMP_temperature;BMP_pressure;BME280_temperature;BME280_humidity;BME280_pressure;Samples;Min_cycle;Max_cycle;Signal;HPM_P1;HPM_P2
2022/04/08 00:02:06;;;;;;;8.50;1.30;;;7.90;99.90;;;;;;5070377;28;20021;-83
2022/04/08 00:04:32;;;;;;;6.67;1.30;;;7.90;99.90;;;;;;5070491;28;20078;-83
2022/04/08 00:07:01;;;;;;;7.27;1.37;;;7.90;99.90;;;;;;5052616;28;20040;-83
2022/04/08 00:09:27;;;;;;;8.82;1.40;;;7.90;99.90;;;;;;5070448;28;20033;-83
2022/04/08 00:11:55;;;;;;;12.23;1.40;;;7.90;99.90;;;;;;5070278;28;20040;-83
2022/04/08 00:14:21;;;;;;;4.17;1.40;;;7.90;99.90;;;;;;5052431;28;20036;-83
2022/04/08 00:16:47;;;;;;;7.57;1.70;;;7.90;99.90;;;;;;5069966;28;20499;-83
2022/04/08 00:19:14;;;;;;;7.93;1.40;;;7.90;99.90;;;;;;5070497;28;20063;-83
2022/04/08 00:21:40;;;;;;;7.30;1.00;;;7.90;99.90;;;;;;5052147;28;20052;-82
2022/04/08 00:24:07;;;;;;;5.87;1.10;;;7.90;99.90;;;;;;5052248;28;20496;-82
2022/04/08 00:26:33;;;;;;;7.43;1.20;;;7.90;99.90;;;;;;5069945;28;20020;-82
2022/04/08 00:28:59;;;;;;;7.00;1.27;;;7.80;99.90;;;;;;5052619;28;20477;-83
2022/04/08 00:31:26;;;;;;;7.77;1.63;;;7.80;99.90;;;;;;5056764;28;20036;-82
2022/04/08 00:33:52;;;;;;;6.27;1.43;;;7.80;99.90;;;;;;5074427;28;20499;-83
2022/04/08 00:36:17;;;;;;;4.60;1.23;;;7.80;99.90;;;;;;5073946;28;20110;-83
2022/04/08 00:38:43;;;;;;;4.20;1.27;;;7.80;99.90;;;;;;5073671;28;20034;-82
2022/04/08 00:41:09;;;;;;;9.63;2.30;;;7.70;99.90;;;;;;5055926;28;20391;-83
2022/04/08 00:43:37;;;;;;;11.20;2.20;;;7.70;99.90;;;;;;5073923;28;20025;-82
2022/04/08 00:46:04;;;;;;;6.87;1.50;;;7.70;99.90;;;;;;5055593;28;20039;-82
2022/04/08 00:48:31;;;;;;;5.90;1.60;;;7.60;99.90;;;;;;5073439;28;20020;-83
2022/04/08 00:50:57;;;;;;;10.70;2.07;;;7.70;99.90;;;;;;5073580;28;20029;-83
2022/04/08 00:53:24;;;;;;;7.13;1.30;;;7.60;99.90;;;;;;5073303;28;20040;-83
2022/04/08 00:55:50;;;;;;;7.73;1.70;;;7.60;99.90;;;;;;5055382;28;20468;-82
2022/04/08 00:58:16;;;;;;;11.40;2.00;;;7.50;99.90;;;;;;5073133;28;20100;-82
2022/04/08 01:00:42;;;;;;;10.67;1.50;;;7.50;99.90;;;;;;5055465;28;20024;-82
2022/04/08 01:03:08;;;;;;;11.57;1.80;;;7.60;99.90;;;;;;5073172;28;20024;-82
2022/04/08 01:05:35;;;;;;;7.07;1.40;;;7.50;99.90;;;;;;5073196;28;20403;-82
2022/04/08 01:08:02;;;;;;;10.97;1.60;;;7.50;99.90;;;;;;5055031;28;20032;-83
2022/04/08 01:10:28;;;;;;;9.37;1.80;;;7.60;99.90;;;;;;5073287;28;20078;-83
2022/04/08 01:12:54;;;;;;;10.67;1.50;;;7.60;99.90;;;;;;5073028;28;20120;-82
2022/04/08 01:15:22;;;;;;;9.07;1.77;;;7.60;99.90;;;;;;5072989;28;20107;-83
2022/04/08 01:17:48;;;;;;;10.07;1.70;;;7.60;99.90;;;;;;5072906;28;20462;-83
2022/04/08 01:20:15;;;;;;;11.80;1.80;;;7.60;99.90;;;;;;5073098;28;20025;-83
2022/04/08 01:22:41;;;;;;;11.03;1.80;;;7.60;99.90;;;;;;5073248;28;20036;-83
2022/04/08 01:25:09;;;;;;;12.93;1.87;;;7.60;99.90;;;;;;5072920;28;20028;-83
2022/04/08 01:27:36;;;;;;;11.80;1.67;;;7.60;99.90;;;;;;5072851;28;20032;-83
2022/04/08 01:30:06;;;;;;;8.87;1.80;;;7.60;99.90;;;;;;5055105;28;20043;-83
2022/04/08 01:32:32;;;;;;;12.50;1.90;;;7.60;99.90;;;;;;5072778;28;20486;-83
2022/04/08 01:34:58;;;;;;;10.57;1.73;;;7.60;99.90;;;;;;5072711;28;20039;-83
2022/04/08 01:37:24;;;;;;;10.27;1.83;;;7.60;99.90;;;;;;5072571;28;20370;-82
2022/04/08 01:39:50;;;;;;;11.37;2.73;;;7.60;99.90;;;;;;5072740;28;20081;-82
2022/04/08 01:42:21;;;;;;;16.40;2.50;;;7.60;99.90;;;;;;5071688;28;20392;-82
2022/04/08 01:44:48;;;;;;;12.53;1.87;;;7.60;99.90;;;;;;5072633;28;20024;-82
2022/04/08 01:47:14;;;;;;;8.23;1.70;;;7.60;99.90;;;;;;5072323;28;20120;-83
2022/04/08 01:49:39;;;;;;;15.87;2.30;;;7.50;99.90;;;;;;5072549;28;20115;-83
2022/04/08 01:52:06;;;;;;;11.23;2.13;;;7.50;99.90;;;;;;5072277;28;20067;-82
2022/04/08 01:54:31;;;;;;;8.77;2.57;;;7.50;99.90;;;;;;5072431;28;20032;-82
2022/04/08 01:56:57;;;;;;;11.50;2.40;;;7.50;99.90;;;;;;5054270;28;20028;-82
2022/04/08 01:59:23;;;;;;;11.30;2.00;;;7.40;99.90;;;;;;5072272;28;20492;-82
2022/04/08 02:01:49;;;;;;;9.70;1.80;;;7.30;99.90;;;;;;5072037;28;20028;-82
2022/04/08 02:04:14;;;;;;;11.20;2.10;;;7.30;99.90;;;;;;5054196;28;20043;-83
2022/04/08 02:06:42;;;;;;;11.03;1.87;;;7.30;99.90;;;;;;5054050;28;20029;-83
2022/04/08 02:09:08;;;;;;;10.63;1.80;;;7.20;99.90;;;;;;5072066;28;20071;-83
2022/04/08 02:11:35;;;;;;;10.60;1.90;;;7.30;99.90;;;;;;5071853;28;20043;-83
2022/04/08 02:14:01;;;;;;;16.83;2.00;;;7.30;99.90;;;;;;5054138;28;20036;-82
2022/04/08 02:16:27;;;;;;;9.83;2.03;;;7.40;99.90;;;;;;5085068;22;20037;-80
2022/04/08 02:18:53;;;;;;;8.87;1.80;;;7.30;99.90;;;;;;5053732;28;20542;-81
2022/04/08 02:21:22;;;;;;;9.60;2.07;;;7.30;99.90;;;;;;5070503;28;20035;-80
2022/04/08 02:23:49;;;;;;;13.63;1.83;;;7.30;99.90;;;;;;5072039;28;20107;-81
2022/04/08 02:26:16;;;;;;;15.23;2.03;;;7.30;99.90;;;;;;5071513;28;20032;-81
2022/04/08 02:28:43;;;;;;;14.53;2.00;;;7.40;99.90;;;;;;5053556;28;20028;-81
2022/04/08 02:31:09;;;;;;;8.90;1.80;;;7.40;99.90;;;;;;5071927;28;20036;-81
2022/04/08 02:33:35;;;;;;;11.23;1.90;;;7.40;99.90;;;;;;5053435;28;20082;-81
2022/04/08 02:36:01;;;;;;;7.53;1.53;;;7.40;99.90;;;;;;5053439;28;20028;-80
2022/04/08 02:38:26;;;;;;;14.00;2.47;;;7.40;99.90;;;;;;5071345;28;20025;-81
2022/04/08 02:40:52;;;;;;;12.30;1.90;;;7.40;99.90;;;;;;5071478;28;20028;-80
2022/04/08 02:43:18;;;;;;;13.93;2.23;;;7.40;99.90;;;;;;5071106;28;20025;-81
2022/04/08 02:45:44;;;;;;;10.23;1.70;;;7.40;99.90;;;;;;5071159;28;20028;-81
2022/04/08 02:48:09;;;;;;;12.60;2.10;;;7.40;99.90;;;;;;5071062;28;20029;-81
2022/04/08 02:50:35;;;;;;;11.37;2.10;;;7.40;99.90;;;;;;5071302;28;20488;-81
2022/04/08 02:53:01;;;;;;;10.13;1.67;;;7.30;99.90;;;;;;5071022;28;20087;-81
2022/04/08 02:55:27;;;;;;;12.10;2.30;;;7.30;99.90;;;;;;5070975;28;20504;-80
2022/04/08 02:57:52;;;;;;;11.67;2.10;;;7.30;99.90;;;;;;5070701;28;20096;-81
2022/04/08 03:00:20;;;;;;;14.13;2.40;;;7.40;99.90;;;;;;5071279;28;20028;-81
2022/04/08 03:02:47;;;;;;;11.60;1.83;;;7.30;99.90;;;;;;5070990;28;20031;-81
2022/04/08 03:05:14;;;;;;;12.27;2.43;;;7.30;99.90;;;;;;5071129;28;20033;-81
2022/04/08 03:07:40;;;;;;;12.13;1.67;;;7.30;99.90;;;;;;5052755;28;20408;-81
2022/04/08 03:10:07;;;;;;;11.53;1.87;;;7.30;99.90;;;;;;5070958;28;20400;-81
2022/04/08 03:12:33;;;;;;;10.90;1.80;;;7.30;99.90;;;;;;5070770;28;20040;-81
2022/04/08 03:15:00;;;;;;;13.70;1.60;;;7.40;99.90;;;;;;5053041;28;20404;-81
2022/04/08 03:17:25;;;;;;;11.10;1.93;;;7.30;99.90;;;;;;5070462;28;20070;-80
2022/04/08 03:19:52;;;;;;;10.90;2.03;;;7.30;99.90;;;;;;5070822;28;20087;-80
2022/04/08 03:22:20;;;;;;;6.70;1.20;;;7.20;99.90;;;;;;5052653;28;20124;-80
2022/04/08 03:24:47;;;;;;;9.07;1.67;;;7.20;99.90;;;;;;5052656;28;20031;-81
2022/04/08 03:27:13;;;;;;;9.40;1.17;;;7.00;99.90;;;;;;5070759;28;20044;-80
2022/04/08 03:29:39;;;;;;;9.10;1.30;;;6.90;99.90;;;;;;5070838;28;20024;-80
2022/04/08 03:32:05;;;;;;;8.83;1.90;;;6.90;99.90;;;;;;5070561;28;20033;-80
2022/04/08 03:34:31;;;;;;;8.57;1.47;;;6.90;99.90;;;;;;5052738;28;20499;-80
2022/04/08 03:36:57;;;;;;;9.03;1.43;;;6.90;99.90;;;;;;5070438;28;20073;-80
2022/04/08 03:39:23;;;;;;;7.67;1.27;;;6.90;99.90;;;;;;5052587;28;20025;-81
2022/04/08 03:41:49;;;;;;;8.93;2.13;;;6.90;99.90;;;;;;5052471;28;20553;-81
2022/04/08 03:44:15;;;;;;;9.00;2.50;;;6.90;99.90;;;;;;5052539;28;20032;-81
2022/04/08 03:46:45;;;;;;;9.37;1.70;;;6.80;99.90;;;;;;5052272;28;20036;-81
2022/04/08 03:49:14;;;;;;;6.67;1.40;;;6.80;99.90;;;;;;5052551;28;20043;-81
2022/04/08 03:51:47;;;;;;;12.05;2.33;;;6.80;99.90;;;;;;5070519;28;20612;-81
2022/04/08 03:54:13;;;;;;;7.80;1.90;;;6.90;99.90;;;;;;5052253;28;20098;-81
2022/04/08 03:56:43;;;;;;;9.97;2.23;;;6.90;99.90;;;;;;5070163;28;20111;-81
2022/04/08 03:59:10;;;;;;;10.13;3.07;;;7.00;99.90;;;;;;5070424;28;20032;-81
2022/04/08 04:01:36;;;;;;;14.83;4.30;;;6.90;99.90;;;;;;5070275;28;20144;-81
2022/04/08 04:04:03;;;;;;;9.27;3.10;;;6.90;99.90;;;;;;5070824;28;20120;-81
2022/04/08 04:06:29;;;;;;;11.43;2.20;;;6.90;99.90;;;;;;5074060;28;20036;-81
2022/04/08 04:08:55;;;;;;;16.50;2.00;;;6.90;99.90;;;;;;5039595;28;20040;-80
2022/04/08 04:11:21;;;;;;;10.03;2.80;;;6.80;99.90;;;;;;5074125;28;20424;-80
2022/04/08 04:13:48;;;;;;;12.73;1.93;;;6.80;99.90;;;;;;5074148;28;20033;-80
2022/04/08 04:16:14;;;;;;;12.47;2.47;;;6.80;99.90;;;;;;5074193;28;20040;-80
2022/04/08 04:18:39;;;;;;;13.20;3.10;;;6.90;99.90;;;;;;5073901;28;20063;-81
2022/04/08 04:21:05;;;;;;;11.80;2.30;;;6.80;99.90;;;;;;5074026;28;20048;-81
2022/04/08 04:23:34;;;;;;;12.43;2.30;;;6.90;99.90;;;;;;5074076;28;20557;-81
2022/04/08 04:26:01;;;;;;;9.85;2.10;;;6.90;99.90;;;;;;5074118;28;20036;-81
2022/04/08 04:28:30;;;;;;;14.70;2.37;;;6.80;99.90;;;;;;5055960;28;20416;-81
2022/04/08 04:30:59;;;;;;;11.10;2.13;;;6.90;99.90;;;;;;5074075;28;20071;-81
2022/04/08 04:33:26;;;;;;;9.48;1.83;;;6.90;99.90;;;;;;5073842;28;20044;-81
2022/04/08 04:35:52;;;;;;;8.90;1.60;;;6.90;99.90;;;;;;5073721;28;20067;-80
2022/04/08 04:38:17;;;;;;;8.93;2.60;;;6.80;99.90;;;;;;5055374;28;20029;-81
2022/04/08 04:40:43;;;;;;;10.80;2.50;;;6.80;99.90;;;;;;5056010;28;20033;-80
2022/04/08 04:43:09;;;;;;;8.77;1.73;;;6.70;99.90;;;;;;5073464;28;20115;-81
2022/04/08 04:45:37;;;;;;;6.43;1.70;;;6.70;99.90;;;;;;5073669;28;20036;-80
2022/04/08 04:48:04;;;;;;;8.93;1.73;;;6.60;99.90;;;;;;5073352;28;20036;-79
2022/04/08 04:50:30;;;;;;;7.60;1.50;;;6.60;99.90;;;;;;5073443;28;20036;-79
2022/04/08 04:52:55;;;;;;;13.77;2.57;;;6.60;99.90;;;;;;5073314;28;20078;-80
2022/04/08 04:55:21;;;;;;;9.90;1.93;;;6.50;99.90;;;;;;5073336;28;20435;-80
2022/04/08 04:57:47;;;;;;;14.60;4.47;;;6.50;99.90;;;;;;5072958;28;20115;-81
2022/04/08 05:00:13;;;;;;;9.83;3.00;;;6.50;99.90;;;;;;5073324;28;20036;-81
2022/04/08 05:02:39;;;;;;;13.90;2.80;;;6.60;99.90;;;;;;5073181;28;20066;-81
2022/04/08 05:05:06;;;;;;;10.47;2.57;;;6.50;99.90;;;;;;5073288;28;20408;-80
2022/04/08 05:07:32;;;;;;;11.77;2.30;;;6.50;99.90;;;;;;5073261;28;20036;-80
2022/04/08 05:09:58;;;;;;;13.00;3.23;;;6.50;99.90;;;;;;5073313;28;20082;-81
2022/04/08 05:12:23;;;;;;;15.60;4.00;;;6.50;99.90;;;;;;5073090;28;20044;-81
2022/04/08 05:14:49;;;;;;;13.10;3.93;;;6.60;99.90;;;;;;5073023;28;20454;-80
2022/04/08 05:17:15;;;;;;;12.23;3.13;;;6.60;99.90;;;;;;5071277;28;20558;-81
2022/04/08 05:19:40;;;;;;;11.33;3.67;;;6.60;99.90;;;;;;5072728;28;20032;-81
2022/04/08 05:22:06;;;;;;;13.17;2.97;;;6.70;99.90;;;;;;5072718;28;20119;-80
2022/04/08 05:24:32;;;;;;;14.13;4.13;;;6.70;99.90;;;;;;5072882;28;20119;-80
2022/04/08 05:26:58;;;;;;;13.33;3.33;;;6.70;99.90;;;;;;5072582;28;20024;-80
2022/04/08 05:29:24;;;;;;;9.50;3.00;;;6.70;99.90;;;;;;5072918;28;20308;-80
2022/04/08 05:31:49;;;;;;;11.00;3.10;;;6.70;99.90;;;;;;5072668;28;20365;-80
2022/04/08 05:34:15;;;;;;;10.60;3.90;;;6.70;99.90;;;;;;5072633;28;20031;-80
2022/04/08 05:36:41;;;;;;;8.93;3.70;;;6.80;99.90;;;;;;5072343;28;20477;-80
2022/04/08 05:39:07;;;;;;;14.57;3.60;;;6.80;99.90;;;;;;5072847;28;20040;-80
2022/04/08 05:41:32;;;;;;;9.23;3.47;;;6.80;99.90;;;;;;5072342;28;20036;-80
2022/04/08 05:43:58;;;;;;;12.97;3.50;;;6.80;99.90;;;;;;5072583;28;20039;-80
2022/04/08 05:46:24;;;;;;;12.67;4.37;;;6.80;99.90;;;;;;5072328;28;20060;-80
2022/04/08 05:48:49;;;;;;;10.77;3.70;;;6.90;99.90;;;;;;5072219;28;20480;-80
2022/04/08 05:51:15;;;;;;;11.13;3.87;;;6.90;99.90;;;;;;5072537;28;20035;-80
2022/04/08 05:53:41;;;;;;;11.27;3.90;;;6.90;99.90;;;;;;5072291;28;20048;-80
2022/04/08 05:56:06;;;;;;;11.50;4.03;;;6.90;99.90;;;;;;5072523;28;20043;-81
2022/04/08 05:58:33;;;;;;;13.00;4.57;;;6.90;99.90;;;;;;5072042;28;20092;-80
2022/04/08 06:00:59;;;;;;;14.97;3.93;;;7.00;99.90;;;;;;5054323;28;20028;-80
2022/04/08 06:03:25;;;;;;;13.77;4.57;;;7.00;99.90;;;;;;5054099;28;20025;-81
2022/04/08 06:05:50;;;;;;;12.00;4.83;;;7.00;99.90;;;;;;5072123;28;20480;-81
2022/04/08 06:08:16;;;;;;;10.03;4.57;;;7.00;99.90;;;;;;5071834;28;20441;-80
2022/04/08 06:10:42;;;;;;;15.60;4.83;;;7.00;99.90;;;;;;5072050;28;20081;-80
2022/04/08 06:13:07;;;;;;;13.13;5.27;;;7.00;99.90;;;;;;5071797;28;20036;-80
2022/04/08 06:15:34;;;;;;;12.10;5.73;;;7.00;99.90;;;;;;5071740;28;20388;-80
2022/04/08 06:18:00;;;;;;;15.10;6.93;;;7.10;99.90;;;;;;5071495;28;20032;-80
2022/04/08 06:20:26;;;;;;;18.17;8.30;;;7.10;99.90;;;;;;5071792;28;20024;-80
2022/04/08 06:22:54;;;;;;;15.63;7.27;;;7.20;99.90;;;;;;5071841;28;20029;-80
2022/04/08 06:25:21;;;;;;;18.77;8.70;;;7.20;99.90;;;;;;5071728;28;20558;-80
2022/04/08 06:28:04;;;;;;;18.43;8.23;;;7.20;99.90;;;;;;5071067;28;20086;-80
2022/04/08 06:30:31;;;;;;;15.67;7.27;;;7.10;99.90;;;;;;5071918;28;20028;-80
2022/04/08 06:32:57;;;;;;;15.73;6.87;;;7.10;99.90;;;;;;5053517;28;20084;-80
2022/04/08 06:35:23;;;;;;;16.57;7.67;;;7.20;99.90;;;;;;5071526;28;20075;-81
2022/04/08 06:37:49;;;;;;;17.83;7.77;;;7.20;99.90;;;;;;5071230;28;20031;-80
2022/04/08 06:40:15;;;;;;;14.83;7.20;;;7.20;99.90;;;;;;5071383;28;20029;-80
2022/04/08 06:42:41;;;;;;;14.87;7.00;;;7.20;99.90;;;;;;5071214;28;20032;-81
2022/04/08 06:45:08;;;;;;;14.93;7.43;;;7.30;99.90;;;;;;5071392;28;20388;-81
2022/04/08 06:47:34;;;;;;;13.53;7.40;;;7.30;99.90;;;;;;5053009;28;20042;-80
2022/04/08 06:49:59;;;;;;;16.47;7.57;;;7.40;99.90;;;;;;5071485;28;20052;-80
2022/04/08 06:52:25;;;;;;;16.47;7.17;;;7.40;99.90;;;;;;5071076;28;20028;-81
2022/04/08 06:54:51;;;;;;;13.43;6.43;;;7.50;99.90;;;;;;5070968;28;20033;-80
2022/04/08 06:57:17;;;;;;;19.53;7.83;;;7.50;99.90;;;;;;5070788;28;20040;-80
2022/04/08 06:59:43;;;;;;;17.97;7.60;;;7.50;99.90;;;;;;5070994;28;20033;-80
2022/04/08 07:02:10;;;;;;;21.63;9.20;;;7.50;99.90;;;;;;5053067;28;20060;-80
2022/04/08 07:04:36;;;;;;;13.27;7.73;;;7.50;99.90;;;;;;5070959;28;20028;-80
2022/04/08 07:07:06;;;;;;;15.77;7.20;;;7.60;99.90;;;;;;5053002;28;20048;-80
2022/04/08 07:09:33;;;;;;;20.23;8.00;;;7.60;99.90;;;;;;5053038;28;20477;-80
2022/04/08 07:11:59;;;;;;;14.03;7.53;;;7.70;99.90;;;;;;5036542;28;20056;-80
2022/04/08 07:14:25;;;;;;;12.40;7.03;;;7.70;99.90;;;;;;5052927;28;20503;-80
2022/04/08 07:16:51;;;;;;;15.63;7.53;;;7.70;99.90;;;;;;5052604;28;20032;-80
2022/04/08 07:19:16;;;;;;;12.30;6.63;;;7.80;99.90;;;;;;5070709;28;20105;-80
2022/04/08 07:21:42;;;;;;;13.53;6.53;;;7.80;99.90;;;;;;5052856;28;20055;-81
2022/04/08 07:24:08;;;;;;;14.57;6.43;;;7.90;99.90;;;;;;5052676;28;20496;-81
2022/04/08 07:26:34;;;;;;;15.07;6.87;;;7.80;99.90;;;;;;5070325;28;20082;-82
2022/04/08 07:29:00;;;;;;;17.57;8.10;;;7.90;99.90;;;;;;5070894;28;20404;-81
2022/04/08 07:31:26;;;;;;;11.97;6.73;;;7.90;99.90;;;;;;5070713;28;20259;-81
2022/04/08 07:33:52;;;;;;;13.83;6.30;;;7.90;99.90;;;;;;5070735;28;20036;-81
2022/04/08 07:36:18;;;;;;;14.27;5.97;;;7.90;99.90;;;;;;5052544;28;20031;-81
2022/04/08 07:38:43;;;;;;;14.40;6.70;;;7.90;99.90;;;;;;5051944;28;20366;-81
2022/04/08 07:41:09;;;;;;;13.03;6.13;;;7.90;99.90;;;;;;5052453;28;20031;-81
2022/04/08 07:43:35;;;;;;;13.33;6.20;;;7.90;99.90;;;;;;5070534;28;20036;-81
2022/04/08 07:46:01;;;;;;;15.13;6.50;;;8.00;99.90;;;;;;5070520;28;20024;-81
2022/04/08 07:48:27;;;;;;;9.00;5.60;;;7.90;99.90;;;;;;5052514;28;20393;-81
2022/04/08 07:50:54;;;;;;;11.17;5.60;;;7.90;99.90;;;;;;5070563;28;20043;-81
2022/04/08 07:53:20;;;;;;;14.00;5.70;;;8.00;99.90;;;;;;5052394;28;20504;-81
2022/04/08 07:55:45;;;;;;;12.67;5.07;;;8.00;99.90;;;;;;5052221;28;20105;-81
2022/04/08 07:58:11;;;;;;;17.10;6.07;;;8.10;99.90;;;;;;5070270;28;20032;-81
2022/04/08 08:00:37;;;;;;;11.47;4.77;;;8.10;99.90;;;;;;5070436;28;20032;-81
2022/04/08 08:03:03;;;;;;;13.07;5.07;;;8.10;99.90;;;;;;5070387;28;20032;-81
2022/04/08 08:05:31;;;;;;;14.87;4.73;;;8.20;99.90;;;;;;5052597;28;20037;-81
2022/04/08 08:07:59;;;;;;;8.47;4.30;;;8.20;99.90;;;;;;5070187;28;20121;-81
2022/04/08 08:10:29;;;;;;;11.20;4.00;;;8.20;99.90;;;;;;5070136;28;20033;-81
2022/04/08 08:12:56;;;;;;;10.80;4.53;;;8.20;99.90;;;;;;5052254;28;20040;-81
2022/04/08 08:15:24;;;;;;;9.47;4.00;;;8.20;99.90;;;;;;5070335;28;20512;-81
2022/04/08 08:17:50;;;;;;;11.50;4.07;;;8.20;99.90;;;;;;5083993;22;20433;-84
2022/04/08 08:20:18;;;;;;;11.40;3.70;;;8.20;99.90;;;;;;5052609;28;20534;-84
2022/04/08 08:22:44;;;;;;;7.00;3.93;;;8.30;99.90;;;;;;5070031;28;20028;-84
2022/04/08 08:25:11;;;;;;;12.93;3.53;;;8.20;99.90;;;;;;5070450;28;20035;-84
2022/04/08 08:27:42;;;;;;;10.60;3.50;;;8.30;99.90;;;;;;5069976;28;20128;-84
2022/04/08 08:30:12;;;;;;;7.87;3.40;;;8.30;99.90;;;;;;5052436;28;20468;-84
2022/04/08 08:32:40;;;;;;;8.93;3.57;;;8.30;99.90;;;;;;5070057;28;20044;-84
2022/04/08 08:35:10;;;;;;;8.50;4.37;;;8.40;99.90;;;;;;5070065;28;20068;-84
2022/04/08 08:37:36;;;;;;;6.17;3.33;;;8.40;99.90;;;;;;5070029;28;20025;-84
2022/04/08 08:40:07;;;;;;;10.80;4.03;;;8.50;99.90;;;;;;5052149;28;20119;-84
2022/04/08 08:42:36;;;;;;;10.43;3.97;;;8.40;99.90;;;;;;5070096;28;20047;-84
2022/04/08 08:45:02;;;;;;;7.30;2.85;;;8.50;99.90;;;;;;5070142;28;20028;-84
2022/04/08 08:47:30;;;;;;;6.27;3.30;;;8.40;99.90;;;;;;5051715;28;20033;-84
2022/04/08 08:49:56;;;;;;;12.10;4.27;;;8.50;99.90;;;;;;5052225;28;20366;-84
2022/04/08 08:52:23;;;;;;;10.47;2.67;;;8.50;99.90;;;;;;5073559;28;20078;-84
2022/04/08 08:54:49;;;;;;;6.97;3.00;;;8.40;99.90;;;;;;5073477;28;20051;-83
2022/04/08 08:57:16;;;;;;;9.93;3.23;;;8.40;99.90;;;;;;5073366;28;20052;-84
2022/04/08 08:59:44;;;;;;;9.00;2.87;;;8.40;99.90;;;;;;5073448;28;20017;-84
2022/04/08 09:02:12;;;;;;;11.37;3.07;;;8.50;99.90;;;;;;5073274;28;20028;-84
2022/04/08 09:04:41;;;;;;;6.57;2.60;;;8.50;99.90;;;;;;5073865;28;20060;-84
2022/04/08 09:07:19;;;;;;;7.15;2.80;;;8.50;99.90;;;;;;5073179;28;20473;-84
2022/04/08 09:09:51;;;;;;;8.87;2.93;;;8.50;99.90;;;;;;5073433;28;20396;-84
2022/04/08 09:12:17;;;;;;;5.30;2.00;;;8.50;99.90;;;;;;5055510;28;20032;-84
2022/04/08 09:14:54;;;;;;;13.40;2.50;;;8.60;99.90;;;;;;5055268;28;20039;-84
2022/04/08 09:17:22;;;;;;;6.70;2.27;;;8.60;99.90;;;;;;5072936;28;20032;-84
2022/04/08 09:19:52;;;;;;;7.60;2.53;;;8.60;99.90;;;;;;5073134;28;20024;-84
2022/04/08 09:22:20;;;;;;;7.87;2.30;;;8.70;99.90;;;;;;5055085;28;20041;-84
2022/04/08 09:24:46;;;;;;;7.40;2.27;;;8.70;99.90;;;;;;5073104;28;20120;-84
2022/04/08 09:27:12;;;;;;;8.47;2.20;;;8.70;99.90;;;;;;5072794;28;20107;-84
2022/04/08 09:29:42;;;;;;;8.33;2.40;;;8.70;99.90;;;;;;5073134;28;20035;-84
2022/04/08 09:32:10;;;;;;;5.93;1.73;;;8.80;99.90;;;;;;5073086;28;20037;-84
2022/04/08 09:34:37;;;;;;;6.53;2.10;;;8.80;99.90;;;;;;5072913;28;20217;-84
2022/04/08 09:37:10;;;;;;;6.07;1.70;;;8.80;99.90;;;;;;5054745;28;20044;-84
2022/04/08 09:39:51;;;;;;;7.57;1.60;;;8.80;99.00;;;;;;5054994;28;20111;-84
2022/04/08 09:42:16;;;;;;;6.13;1.90;;;8.90;98.70;;;;;;5072777;28;20025;-84
2022/04/08 09:44:42;;;;;;;8.53;2.23;;;8.80;99.10;;;;;;5073092;28;20037;-84
2022/04/08 09:47:08;;;;;;;6.97;2.13;;;8.80;99.10;;;;;;5072817;28;20036;-84
2022/04/08 09:49:34;;;;;;;8.80;1.90;;;8.90;98.90;;;;;;5054807;28;20381;-84
2022/04/08 09:52:05;;;;;;;4.23;1.53;;;8.90;98.60;;;;;;5072705;28;20055;-84
2022/04/08 09:54:33;;;;;;;3.83;1.60;;;8.90;98.10;;;;;;5072714;28;20151;-85
2022/04/08 09:56:59;;;;;;;3.93;1.27;;;8.90;97.50;;;;;;5072560;28;20028;-84
2022/04/08 09:59:31;;;;;;;8.83;1.90;;;8.90;97.50;;;;;;5072596;28;20161;-84
2022/04/08 10:02:01;;;;;;;10.83;2.13;;;9.00;97.70;;;;;;5071953;28;20028;-84
2022/04/08 10:04:27;;;;;;;6.40;1.87;;;8.90;98.70;;;;;;5072578;28;20037;-84
2022/04/08 10:06:55;;;;;;;9.83;2.20;;;9.00;98.90;;;;;;5072267;28;20100;-84
2022/04/08 10:09:24;;;;;;;7.43;2.50;;;9.00;99.00;;;;;;5072500;28;20115;-84
2022/04/08 10:11:54;;;;;;;;;;;9.00;98.90;;;;;;5072691;28;20211;-84
2022/04/08 10:14:28;;;;;;;9.43;2.40;;;9.00;98.30;;;;;;5072334;28;19964;-83
2022/04/08 10:16:56;;;;;;;7.90;2.47;;;9.10;97.00;;;;;;5071915;28;20029;-84
2022/04/08 10:19:23;;;;;;;5.00;1.65;;;9.10;97.30;;;;;;5072060;28;20115;-83
2022/04/08 10:21:53;;;;;;;6.47;1.57;;;9.10;96.80;;;;;;5071945;28;20074;-84
2022/04/08 10:24:26;;;;;;;5.17;1.20;;;9.10;96.70;;;;;;5072044;28;20025;-84
2022/04/08 10:27:05;;;;;;;6.63;1.50;;;9.10;95.70;;;;;;5071811;28;20040;-84
2022/04/08 10:29:33;;;;;;;5.13;1.30;;;9.20;95.20;;;;;;5071911;28;20028;-84
2022/04/08 10:32:02;;;;;;;5.57;2.03;;;9.20;94.40;;;;;;5053821;28;20114;-84
2022/04/08 10:34:32;;;;;;;5.25;2.25;;;9.20;94.60;;;;;;5053927;28;20036;-84
2022/04/08 10:36:59;;;;;;;8.67;3.80;;;9.20;95.20;;;;;;5071434;28;20029;-84
2022/04/08 10:39:25;;;;;;;5.67;2.50;;;9.20;96.80;;;;;;5071621;28;20028;-84
2022/04/08 10:41:59;;;;;;;5.97;2.73;;;9.20;97.70;;;;;;5053574;28;20036;-84
2022/04/08 10:44:37;;;;;;;8.30;2.97;;;9.20;97.60;;;;;;5071435;28;20078;-84
2022/04/08 10:47:17;;;;;;;9.20;2.90;;;9.10;98.00;;;;;;5053551;28;20480;-84
2022/04/08 10:49:53;;;;;;;9.93;2.93;;;9.20;96.50;;;;;;5053696;28;20037;-84
2022/04/08 10:52:39;;;;;;;5.77;3.20;;;9.20;96.10;;;;;;5053430;28;20492;-84
2022/04/08 10:55:07;;;;;;;8.57;3.67;;;9.20;97.00;;;;;;5071453;28;20040;-84
2022/04/08 10:57:42;;;;;;;7.40;3.77;;;9.20;96.60;;;;;;5071251;28;20103;-84
2022/04/08 11:00:14;;;;;;;7.57;3.40;;;9.20;96.90;;;;;;5071494;28;20434;-84
2022/04/08 11:02:42;;;;;;;5.57;2.93;;;9.20;96.60;;;;;;5071177;28;20387;-84
2022/04/08 11:05:10;;;;;;;6.07;2.43;;;9.20;96.50;;;;;;5071053;28;20029;-83
2022/04/08 11:07:44;;;;;;;5.27;2.57;;;9.20;96.00;;;;;;5070888;28;20487;-83
2022/04/08 11:10:21;;;;;;;8.90;4.23;;;9.20;96.20;;;;;;5071214;28;20050;-84
2022/04/08 11:12:51;;;;;;;4.60;2.80;;;9.30;96.40;;;;;;5070916;28;20455;-84
2022/04/08 11:15:19;;;;;;;4.57;2.60;;;9.30;96.20;;;;;;5070944;28;20442;-84
2022/04/08 11:17:46;;;;;;;6.20;2.20;;;9.30;95.50;;;;;;5070493;28;20340;-84
2022/04/08 11:20:17;;;;;;;7.30;2.93;;;9.30;95.30;;;;;;5071051;28;20099;-84
2022/04/08 11:22:52;;;;;;;6.17;2.80;;;9.30;95.60;;;;;;5052959;28;20028;-84
2022/04/08 11:25:27;;;;;;;5.27;2.73;;;9.30;94.90;;;;;;5071055;28;20036;-84
2022/04/08 11:28:03;;;;;;;8.40;2.90;;;9.30;94.30;;;;;;5052717;28;20155;-84
2022/04/08 11:30:31;;;;;;;6.87;2.60;;;9.30;94.60;;;;;;5052955;28;20439;-84
2022/04/08 11:32:58;;;;;;;6.73;2.60;;;9.30;94.50;;;;;;5070691;28;20456;-84
2022/04/08 11:35:31;;;;;;;7.63;3.60;;;9.30;94.90;;;;;;5070770;28;20032;-84
2022/04/08 11:37:58;;;;;;;6.17;3.00;;;9.30;95.10;;;;;;5070567;28;20411;-84
2022/04/08 11:40:24;;;;;;;6.97;2.90;;;9.30;94.90;;;;;;5070794;28;20032;-84
2022/04/08 11:42:50;;;;;;;5.10;2.30;;;9.40;95.00;;;;;;5070398;28;20031;-84
2022/04/08 11:45:16;;;;;;;6.73;2.30;;;9.40;94.20;;;;;;5052566;28;20090;-84
2022/04/08 11:47:49;;;;;;;5.90;2.27;;;9.40;94.60;;;;;;5052434;28;20040;-84
2022/04/08 11:50:24;;;;;;;6.07;2.43;;;9.40;95.10;;;;;;5053137;28;20038;-84
2022/04/08 11:52:57;;;;;;;7.30;2.23;;;9.40;95.30;;;;;;5070548;28;20035;-84
2022/04/08 11:55:27;;;;;;;5.03;2.47;;;9.40;95.40;;;;;;5071047;28;20131;-84
2022/04/08 11:57:55;;;;;;;6.30;2.63;;;9.40;95.80;;;;;;5070226;28;20029;-84
2022/04/08 12:00:29;;;;;;;4.53;2.20;;;9.40;95.40;;;;;;5070615;28;20112;-84
2022/04/08 12:03:00;;;;;;;6.37;2.43;;;9.40;95.40;;;;;;5070293;28;20032;-84
2022/04/08 12:05:29;;;;;;;6.30;2.33;;;9.50;94.10;;;;;;5070330;28;20059;-84
2022/04/08 12:07:57;;;;;;;4.35;2.00;;;9.50;93.60;;;;;;5035638;28;20392;-84
2022/04/08 12:10:24;;;;;;;5.05;2.08;;;9.50;92.80;;;;;;5070763;28;20037;-84
2022/04/08 12:12:50;;;;;;;5.13;2.20;;;9.50;92.90;;;;;;5070254;28;20476;-84
2022/04/08 12:15:21;;;;;;;4.83;2.07;;;9.50;92.50;;;;;;5052453;28;20100;-84
2022/04/08 12:17:47;;;;;;;6.27;2.30;;;9.50;92.60;;;;;;5069968;28;20028;-84
2022/04/08 12:20:20;;;;;;;3.93;1.90;;;9.60;92.20;;;;;;5070195;28;20112;-84
2022/04/08 12:22:48;;;;;;;4.87;1.70;;;9.60;91.40;;;;;;5070132;28;20025;-84
2022/04/08 12:25:15;;;;;;;3.30;1.67;;;9.50;90.20;;;;;;5052900;28;20086;-84
2022/04/08 12:27:41;;;;;;;5.33;1.90;;;9.50;90.10;;;;;;5039258;28;20496;-84
2022/04/08 12:30:11;;;;;;;6.63;2.50;;;9.50;90.10;;;;;;5056236;28;20032;-84
2022/04/08 12:32:39;;;;;;;7.93;2.93;;;9.50;90.80;;;;;;5073647;28;20035;-84
2022/04/08 12:35:08;;;;;;;7.10;2.60;;;9.50;91.30;;;;;;5073810;28;20036;-84
2022/04/08 12:37:35;;;;;;;5.65;2.70;;;9.50;90.50;;;;;;5055724;28;20033;-84
2022/04/08 12:40:02;;;;;;;6.67;3.43;;;9.50;91.20;;;;;;5073747;28;20025;-84
2022/04/08 12:42:28;;;;;;;5.70;3.27;;;9.50;91.60;;;;;;5073764;28;20514;-84
2022/04/08 12:44:54;;;;;;;6.53;2.83;;;9.40;91.80;;;;;;5073765;28;20099;-84
2022/04/08 12:47:19;;;;;;;5.17;2.40;;;9.50;91.90;;;;;;5073257;28;20510;-84
2022/04/08 12:49:45;;;;;;;8.27;3.23;;;9.50;92.40;;;;;;5073628;28;20503;-84
2022/04/08 12:52:11;;;;;;;11.63;3.10;;;9.50;92.00;;;;;;5073566;28;20067;-84
2022/04/08 12:54:36;;;;;;;6.43;2.70;;;9.50;91.60;;;;;;5073654;28;20043;-84